Time;durP1;ratioP1;P1;durP2;ratioP2;P2;SDS_P1;SDS_P2;PMS_P1;PMS_P2;Temp;Humidity;BMP_temperature;BMP_pressure;BME280_temperature;BME280_humidity;BME280_pressure;Samples;Min_cycle;Max_cycle;Signal;HPM_P1;HPM_P2
2023/01/01 00:02:02;;;;;;;;;;;;;;;18.93;42.08;99419.06;10543052;28;1228;-63
2023/01/01 00:07:03;;;;;;;;;;;;;;;18.93;41.97;99427.03;10542856;28;1897;-62
2023/01/01 00:12:03;;;;;;;;;;;;;;;18.95;41.77;99421.56;10542633;28;1187;-63
2023/01/01 00:17:03;;;;;;;;;;;;;;;18.95;41.65;99429.53;10542018;28;883;-66
2023/01/01 00:22:04;;;;;;;;;;;;;;;18.95;41.86;99434.84;10546743;28;1269;-63
2023/01/01 00:27:04;;;;;;;;;;;;;;;18.93;41.86;99443.00;10541922;28;1890;-68
2023/01/01 00:32:04;;;;;;;;;;;;;;;18.93;41.78;99450.16;10540493;28;1298;-63
2023/01/01 00:37:04;;;;;;;;;;;;;;;18.90;41.92;99448.66;10540281;28;1559;-65
2023/01/01 00:42:04;;;;;;;;;;;;;;;18.86;41.90;99450.81;10542417;28;1290;-61
2023/01/01 00:47:05;;;;;;;;;;;;;;;18.88;41.98;99456.81;10540116;28;1910;-65
2023/01/01 00:52:05;;;;;;;;;;;;;;;18.92;41.64;99457.28;10540022;28;1192;-62
2023/01/01 00:57:05;;;;;;;;;;;;;;;18.94;41.83;99459.78;10541973;28;860;-62
2023/01/01 01:02:05;;;;;;;;;;;;;;;18.92;41.81;99457.28;10541147;28;1336;-63
2023/01/01 01:07:05;;;;;;;;;;;;;;;18.92;41.89;99462.59;10541351;28;1910;-63
2023/01/01 01:12:06;;;;;;;;;;;;;;;18.94;41.71;99473.94;10541464;28;1166;-65
2023/01/01 01:17:06;;;;;;;;;;;;;;;18.97;41.46;99470.94;10540894;28;1062;-62
2023/01/01 01:22:06;;;;;;;;;;;;;;;18.96;41.31;99495.03;10540919;28;1273;-63
2023/01/01 01:27:06;;;;;;;;;;;;;;;18.93;41.56;99504.19;10540377;28;1949;-63
2023/01/01 01:32:06;;;;;;;;;;;;;;;18.95;41.36;99506.69;10540819;28;1337;-64
2023/01/01 01:37:07;;;;;;;;;;;;;;;18.95;41.33;99501.34;10548967;28;925;-62
2023/01/01 01:42:09;;;;;;;;;;;;;;;18.92;41.41;99515.00;10548113;28;1192;-62
2023/01/01 01:47:30;;;;;;;;;;;;;;;18.95;41.33;99530.63;10548302;28;1975;-64
2023/01/01 01:52:30;;;;;;;;;;;;;;;18.92;41.55;99537.09;10546392;28;1209;-64
2023/01/01 01:57:30;;;;;;;;;;;;;;;18.88;41.31;99544.59;10547240;28;1139;-63
2023/01/01 02:02:35;;;;;;;;;;;;;;;18.86;41.48;99559.88;10546194;28;1277;-64
2023/01/01 02:07:35;;;;;;;;;;;;;;;18.88;41.31;99570.34;10528806;28;1909;-68
2023/01/01 02:12:35;;;;;;;;;;;;;;;18.93;41.13;99564.53;10545515;28;1173;-61
2023/01/01 02:17:39;;;;;;;;;;;;;;;18.96;41.05;99569.53;10528451;28;895;-62
2023/01/01 02:22:58;;;;;;;;;;;;;;;18.96;41.10;99566.88;10546256;28;1255;-67
2023/01/01 02:27:59;;;;;;;;;;;;;;;18.93;41.19;99575.16;10545840;28;1961;-68
2023/01/01 02:33:00;;;;;;;;;;;;;;;18.94;41.24;99582.16;10546355;28;1313;-63
2023/01/01 02:38:03;;;;;;;;;;;;;;;18.93;41.05;99578.66;10545706;28;891;-63
2023/01/01 02:43:04;;;;;;;;;;;;;;;18.91;41.02;99583.34;10544836;28;1188;-63
2023/01/01 02:48:04;;;;;;;;;;;;;;;18.93;40.99;99591.13;10543999;28;1913;-62
2023/01/01 02:53:11;;;;;;;;;;;;;;;18.94;40.96;99582.16;10546254;28;1166;-64
2023/01/01 03:03:44;;;;;;;;;;;;;;;18.99;40.58;99599.31;10543722;28;1321;-63
2023/01/01 03:09:04;;;;;;;;;;;;;;;18.99;40.63;99595.81;10543910;28;1965;-63
2023/01/01 03:14:07;;;;;;;;;;;;;;;19.00;40.79;99592.97;10549032;28;1209;-62
2023/01/01 03:19:21;;;;;;;;;;;;;;;19.02;40.68;99595.47;10543444;28;1058;-63
2023/01/01 03:24:23;;;;;;;;;;;;;;;18.95;40.81;99613.91;10542427;28;1270;-62
2023/01/01 03:29:23;;;;;;;;;;;;;;;18.94;40.54;99598.13;10542277;28;1914;-62
2023/01/01 03:34:28;;;;;;;;;;;;;;;18.89;40.90;99604.78;10542245;28;1165;-63
2023/01/01 03:39:42;;;;;;;;;;;;;;;18.89;40.80;99612.75;10542673;28;998;-70
2023/01/01 03:44:49;;;;;;;;;;;;;;;18.88;40.89;99616.41;10543068;28;914;-62
2023/01/01 03:49:49;;;;;;;;;;;;;;;18.92;40.96;99634.72;10543271;28;1902;-67
2023/01/01 03:54:52;;;;;;;;;;;;;;;18.92;40.79;99642.69;10543120;28;884;-65
2023/01/01 03:59:55;;;;;;;;;;;;;;;18.92;40.56;99643.50;10542692;28;1281;-63
2023/01/01 04:04:55;;;;;;;;;;;;;;;18.89;40.68;99647.34;10541876;28;1905;-62
2023/01/01 04:09:55;;;;;;;;;;;;;;;18.87;40.82;99644.00;10541116;28;1177;-65
2023/01/01 04:14:55;;;;;;;;;;;;;;;18.93;40.53;99650.47;10541622;28;1015;-66
2023/01/01 04:19:56;;;;;;;;;;;;;;;18.93;40.42;99653.16;10543015;28;1318;-67
2023/01/01 04:24:56;;;;;;;;;;;;;;;18.93;40.48;99652.31;10541641;28;1978;-65
2023/01/01 04:29:56;;;;;;;;;;;;;;;18.92;40.58;99663.97;10542074;28;1323;-70
2023/01/01 04:34:56;;;;;;;;;;;;;;;18.93;40.27;99661.13;10542399;28;859;-64
2023/01/01 04:39:56;;;;;;;;;;;;;;;18.93;40.58;99662.94;10541595;28;1195;-61
2023/01/01 04:44:57;;;;;;;;;;;;;;;18.86;40.56;99655.63;10540556;28;1906;-64
2023/01/01 04:49:57;;;;;;;;;;;;;;;18.92;40.38;99674.63;10542019;28;1267;-66
2023/01/01 04:54:57;;;;;;;;;;;;;;;18.95;40.46;99677.75;10542591;28;936;-67
2023/01/01 04:59:57;;;;;;;;;;;;;;;18.91;40.35;99660.47;10542480;28;1320;-64
2023/01/01 05:04:57;;;;;;;;;;;;;;;18.94;40.33;99664.63;10540529;28;1910;-69
2023/01/01 05:09:58;;;;;;;;;;;;;;;18.93;40.35;99676.25;10545739;28;1298;-64
2023/01/01 05:14:58;;;;;;;;;;;;;;;18.96;40.49;99682.09;10549350;28;959;-65
2023/01/01 05:19:59;;;;;;;;;;;;;;;19.01;40.36;99686.91;10549369;28;1179;-62
2023/01/01 05:24:59;;;;;;;;;;;;;;;18.99;40.39;99687.09;10549053;28;1901;-63
2023/01/01 05:29:59;;;;;;;;;;;;;;;18.96;40.25;99684.75;10548585;28;1215;-62
2023/01/01 05:34:59;;;;;;;;;;;;;;;18.98;40.32;99688.09;10549238;28;868;-64
2023/01/01 05:39:59;;;;;;;;;;;;;;;18.98;40.21;99705.88;10546876;28;1215;-67
2023/01/01 05:45:00;;;;;;;;;;;;;;;18.97;40.27;99715.69;10548561;28;1898;-70
2023/01/01 05:50:00;;;;;;;;;;;;;;;18.96;40.28;99698.06;10547603;28;1276;-67
2023/01/01 05:55:00;;;;;;;;;;;;;;;18.95;40.22;99698.22;10547492;28;930;-65
2023/01/01 06:00:00;;;;;;;;;;;;;;;18.94;40.19;99697.38;10551777;28;1210;-67
2023/01/01 06:05:00;;;;;;;;;;;;;;;18.94;40.16;99707.19;10550485;28;1959;-65
2023/01/01 06:10:01;;;;;;;;;;;;;;;18.93;40.02;99716.16;10547898;28;1262;-62
2023/01/01 06:15:01;;;;;;;;;;;;;;;18.94;40.11;99705.34;10546665;28;1210;-65
2023/01/01 06:20:01;;;;;;;;;;;;;;;18.96;40.04;99710.53;10546219;28;1204;-68
2023/01/01 06:25:01;;;;;;;;;;;;;;;18.94;40.13;99725.81;10544932;28;1965;-72
2023/01/01 06:30:02;;;;;;;;;;;;;;;18.93;40.05;99722.31;10545330;28;1320;-71
2023/01/01 06:35:02;;;;;;;;;;;;;;;18.92;40.03;99725.16;10546417;28;1011;-68
2023/01/01 06:40:03;;;;;;;;;;;;;;;18.88;40.22;99741.41;10546665;28;1262;-71
2023/01/01 06:45:03;;;;;;;;;;;;;;;18.82;40.16;99743.88;10545299;28;1943;-66
2023/01/01 06:50:03;;;;;;;;;;;;;;;18.79;40.14;99749.50;10545742;28;1183;-70
2023/01/01 06:55:04;;;;;;;;;;;;;;;18.82;40.08;99760.69;10545059;28;1031;-63
2023/01/01 07:00:04;;;;;;;;;;;;;;;18.82;40.14;99771.31;10545208;28;1302;-65
2023/01/01 07:05:04;;;;;;;;;;;;;;;18.86;40.00;99767.34;10545360;28;1902;-64
2023/01/01 07:10:05;;;;;;;;;;;;;;;18.87;39.98;99766.34;10544887;28;1199;-71
2023/01/01 07:15:05;;;;;;;;;;;;;;;18.87;39.83;99778.81;10544842;28;773;-64
2023/01/01 07:20:06;;;;;;;;;;;;;;;18.86;39.92;99788.63;10543904;28;1175;-67
2023/01/01 07:25:06;;;;;;;;;;;;;;;18.87;39.92;99787.63;10542277;28;1883;-68
2023/01/01 07:30:07;;;;;;;;;;;;;;;18.84;39.74;99795.91;10543799;28;1270;-65
2023/01/01 07:35:07;;;;;;;;;;;;;;;18.85;39.91;99804.72;10543393;28;1231;-70
2023/01/01 07:40:07;;;;;;;;;;;;;;;18.86;39.72;99796.59;10543828;28;1290;-64
2023/01/01 07:45:09;;;;;;;;;;;;;;;18.87;39.98;99803.59;10543109;28;1906;-71
2023/01/01 07:50:13;;;;;;;;;;;;;;;18.86;39.96;99809.91;10541733;28;1255;-71
2023/01/01 07:55:14;;;;;;;;;;;;;;;18.87;39.68;99811.56;10544047;28;1082;-66
2023/01/01 08:00:15;;;;;;;;;;;;;;;18.86;39.80;99817.88;10544130;28;1285;-68
2023/01/01 08:05:15;;;;;;;;;;;;;;;18.86;39.85;99841.81;10541349;28;1963;-70
2023/01/01 08:10:16;;;;;;;;;;;;;;;18.84;39.72;99838.47;10542681;28;1171;-63
2023/01/01 08:15:16;;;;;;;;;;;;;;;18.73;39.96;99852.03;10542244;28;820;-65
2023/01/01 08:20:16;;;;;;;;;;;;;;;18.60;40.00;99866.75;10542118;28;1193;-65
2023/01/01 08:25:17;;;;;;;;;;;;;;;18.70;40.23;99859.47;10543585;28;1976;-65
2023/01/01 08:30:17;;;;;;;;;;;;;;;18.75;40.39;99882.00;10541083;28;1306;-62
2023/01/01 08:35:17;;;;;;;;;;;;;;;18.69;39.73;99881.78;10542331;28;833;-62
2023/01/01 08:40:17;;;;;;;;;;;;;;;18.65;39.09;99889.22;10542116;28;1185;-62
2023/01/01 08:45:17;;;;;;;;;;;;;;;18.68;39.74;99902.22;10549329;28;1913;-62
2023/01/01 08:50:18;;;;;;;;;;;;;;;18.67;39.77;99918.31;10550649;28;1282;-60
2023/01/01 08:55:18;;;;;;;;;;;;;;;18.67;40.22;99929.78;10555159;28;824;-60
2023/01/01 09:00:18;;;;;;;;;;;;;;;18.68;40.39;99928.81;10550484;28;1188;-60
2023/01/01 09:05:18;;;;;;;;;;;;;;;18.69;40.42;99930.44;10550282;28;1964;-60
2023/01/01 09:10:19;;;;;;;;;;;;;;;18.72;40.49;99935.47;10531423;28;1296;-61
2023/01/01 09:15:19;;;;;;;;;;;;;;;18.75;40.63;99944.97;10548387;28;876;-59
2023/01/01 09:20:19;;;;;;;;;;;;;;;18.87;40.31;99957.88;10549879;28;1205;-61
2023/01/01 09:25:19;;;;;;;;;;;;;;;18.86;40.31;99963.34;10549393;28;1906;-62
2023/01/01 09:30:19;;;;;;;;;;;;;;;18.79;40.42;99970.25;10549602;28;1240;-63
2023/01/01 09:35:19;;;;;;;;;;;;;;;18.89;40.42;99974.53;10547158;28;1292;-57
2023/01/01 09:40:40;;;;;;;;;;;;;;;18.85;39.99;99994.44;10548191;28;1303;-59
2023/01/01 09:45:45;;;;;;;;;;;;;;;18.85;39.54;100015.69;10547103;28;1906;-62
2023/01/01 09:50:46;;;;;;;;;;;;;;;18.97;39.99;100013.66;10547494;28;1241;-62
2023/01/01 09:55:47;;;;;;;;;;;;;;;18.81;39.60;100018.84;10546230;28;868;-63
2023/01/01 10:00:49;;;;;;;;;;;;;;;18.81;40.96;100005.53;10548109;28;1172;-62
2023/01/01 10:06:00;;;;;;;;;;;;;;;18.79;40.50;100011.00;10546935;28;1902;-61
2023/01/01 10:11:04;;;;;;;;;;;;;;;18.73;40.03;100022.25;10546384;28;1361;-63
2023/01/01 10:16:17;;;;;;;;;;;;;;;18.65;40.81;100018.66;10548339;28;928;-70
2023/01/01 10:21:24;;;;;;;;;;;;;;;18.70;39.58;100029.69;10547112;28;1291;-70
2023/01/01 10:26:25;;;;;;;;;;;;;;;18.70;39.55;100025.19;10546043;28;1902;-62
2023/01/01 10:31:33;;;;;;;;;;;;;;;18.69;40.06;100028.84;10545320;28;1274;-66
2023/01/01 10:36:33;;;;;;;;;;;;;;;18.69;39.40;100022.72;10548362;28;910;-65
2023/01/01 10:41:33;;;;;;;;;;;;;;;18.66;39.66;100021.19;10546741;28;1403;-70
2023/01/01 10:46:33;;;;;;;;;;;;;;;18.67;39.65;100027.34;10547049;28;1889;-64
2023/01/01 10:51:34;;;;;;;;;;;;;;;18.64;39.91;100038.28;10547331;28;1315;-72
2023/01/01 10:56:38;;;;;;;;;;;;;;;18.64;39.75;100038.28;10553493;28;962;-65
2023/01/01 11:01:39;;;;;;;;;;;;;;;18.68;38.98;100040.50;10550137;28;1258;-61
2023/01/01 11:06:40;;;;;;;;;;;;;;;18.68;39.65;100047.63;10549275;28;1902;-64
2023/01/01 11:11:44;;;;;;;;;;;;;;;18.75;40.92;100062.00;10543814;28;1278;-61
2023/01/01 11:16:44;;;;;;;;;;;;;;;18.82;42.08;100063.06;10545607;28;841;-61
2023/01/01 11:21:47;;;;;;;;;;;;;;;18.85;41.38;100058.25;10544512;28;1177;-62
2023/01/01 11:26:48;;;;;;;;;;;;;;;18.83;41.41;100062.09;10544260;28;1969;-62
2023/01/01 11:31:48;;;;;;;;;;;;;;;18.84;41.33;100067.22;10543625;28;1185;-61
2023/01/01 11:36:48;;;;;;;;;;;;;;;18.83;41.34;100065.59;10542543;28;928;-61
2023/01/01 11:41:49;;;;;;;;;;;;;;;19.43;42.83;100083.56;10542607;28;1266;-61
2023/01/01 11:46:49;;;;;;;;;;;;;;;19.01;41.81;100078.03;10545521;28;1982;-60
2023/01/01 11:51:50;;;;;;;;;;;;;;;18.75;41.33;100093.91;10543650;28;1270;-61
2023/01/01 11:56:52;;;;;;;;;;;;;;;18.74;41.08;100101.06;10541877;28;864;-68
2023/01/01 12:01:57;;;;;;;;;;;;;;;18.75;40.78;100120.50;10541842;28;1332;-66
2023/01/01 12:07:07;;;;;;;;;;;;;;;18.72;40.11;100116.31;10541079;28;1902;-66
2023/01/01 12:12:17;;;;;;;;;;;;;;;18.71;40.80;100122.63;10524431;28;1255;-63
2023/01/01 12:17:25;;;;;;;;;;;;;;;18.69;40.83;100132.56;10541476;28;766;-62
2023/01/01 12:22:25;;;;;;;;;;;;;;;18.71;40.73;100135.06;10540774;28;1276;-64
2023/01/01 12:27:44;;;;;;;;;;;;;;;18.69;40.54;100143.19;10540921;28;1955;-66
2023/01/01 12:32:58;;;;;;;;;;;;;;;18.66;39.99;100151.50;10540591;28;1390;-68
2023/01/01 12:37:58;;;;;;;;;;;;;;;18.67;40.36;100152.34;10540551;28;868;-66
2023/01/01 12:43:04;;;;;;;;;;;;;;;18.67;40.77;100141.69;10540225;28;1353;-65
2023/01/01 12:48:37;;;;;;;;;;;;;;;18.70;40.55;100150.19;10542020;28;1910;-63
2023/01/01 12:53:48;;;;;;;;;;;;;;;18.66;41.05;100164.78;10507202;28;1262;-66
2023/01/01 12:58:59;;;;;;;;;;;;;;;18.67;41.12;100171.78;10542120;28;952;-69
2023/01/01 13:04:01;;;;;;;;;;;;;;;18.69;41.02;100177.78;10523039;28;1207;-65
2023/01/01 13:09:04;;;;;;;;;;;;;;;18.66;40.83;100186.06;10539766;28;1898;-65
2023/01/01 13:14:04;;;;;;;;;;;;;;;18.65;40.95;100191.53;10539759;28;1263;-67
2023/01/01 13:19:04;;;;;;;;;;;;;;;18.70;41.12;100198.06;10539681;28;1023;-68
2023/01/01 13:24:17;;;;;;;;;;;;;;;18.67;41.02;100200.19;10539903;28;1254;-64
2023/01/01 13:29:17;;;;;;;;;;;;;;;18.58;40.43;100190.44;10541424;28;1988;-65
2023/01/01 13:34:29;;;;;;;;;;;;;;;18.59;40.05;100200.94;10548327;28;1255;-67
2023/01/01 13:39:48;;;;;;;;;;;;;;;18.60;39.71;100201.78;10548722;28;860;-62
2023/01/01 13:44:48;;;;;;;;;;;;;;;18.67;39.29;100208.19;10547891;28;974;-62
2023/01/01 13:50:01;;;;;;;;;;;;;;;18.63;39.70;100215.59;10547746;28;1902;-63
2023/01/01 13:55:01;;;;;;;;;;;;;;;18.70;39.55;100223.81;10548710;28;1066;-63
2023/01/01 14:00:13;;;;;;;;;;;;;;;18.60;39.76;100223.03;10547826;28;1290;-63
2023/01/01 14:05:16;;;;;;;;;;;;;;;18.64;39.70;100233.22;10546692;28;829;-62
2023/01/01 14:10:43;;;;;;;;;;;;;;;18.64;39.76;100243.88;10546903;28;1275;-63
2023/01/01 14:15:49;;;;;;;;;;;;;;;18.59;39.71;100253.28;10544549;28;1687;-67
2023/01/01 14:20:50;;;;;;;;;;;;;;;18.59;38.99;100259.44;10547181;28;1171;-64
2023/01/01 14:25:50;;;;;;;;;;;;;;;18.58;39.47;100276.38;10545382;28;1985;-63
2023/01/01 14:30:50;;;;;;;;;;;;;;;18.66;38.88;100283.63;10545799;28;1197;-62
2023/01/01 14:35:54;;;;;;;;;;;;;;;18.67;38.61;100304.75;10545381;28;871;-62
2023/01/01 14:41:03;;;;;;;;;;;;;;;18.64;38.75;100320.16;10548094;28;1309;-62
2023/01/01 14:46:04;;;;;;;;;;;;;;;18.66;38.90;100339.47;10544968;28;1993;-64
2023/01/01 14:51:04;;;;;;;;;;;;;;;18.64;39.24;100346.75;10545135;28;1329;-62
2023/01/01 14:56:06;;;;;;;;;;;;;;;18.66;39.00;100366.91;10545758;28;870;-64
2023/01/01 15:01:12;;;;;;;;;;;;;;;18.70;38.69;100378.91;10544819;28;1308;-62
2023/01/01 15:06:14;;;;;;;;;;;;;;;18.66;38.75;100390.84;10546454;28;1976;-63
2023/01/01 15:11:15;;;;;;;;;;;;;;;18.63;39.14;100404.41;10543250;28;1274;-64
2023/01/01 15:16:16;;;;;;;;;;;;;;;18.58;39.16;100421.78;10543769;28;981;-64
2023/01/01 15:21:19;;;;;;;;;;;;;;;18.64;39.14;100437.16;10526054;28;1185;-64
2023/01/01 15:26:29;;;;;;;;;;;;;;;18.63;39.24;100446.97;10544220;28;1918;-64
2023/01/01 15:31:36;;;;;;;;;;;;;;;18.67;39.21;100460.81;10543068;28;1346;-64
2023/01/01 15:36:36;;;;;;;;;;;;;;;18.65;39.45;100478.75;10525486;28;880;-65
2023/01/01 15:41:41;;;;;;;;;;;;;;;18.67;39.57;100493.59;10542515;28;1198;-64
2023/01/01 15:46:46;;;;;;;;;;;;;;;18.62;39.53;100490.47;10546465;28;1918;-64
2023/01/01 15:51:46;;;;;;;;;;;;;;;18.67;39.27;100508.69;10544914;28;1280;-63
2023/01/01 15:56:46;;;;;;;;;;;;;;;18.71;39.24;100518.91;10544763;28;884;-64
2023/01/01 16:01:46;;;;;;;;;;;;;;;18.83;39.82;100530.28;10543777;28;1193;-66
2023/01/01 16:06:47;;;;;;;;;;;;;;;18.82;38.80;100531.25;10542188;28;1905;-64
2023/01/01 16:11:51;;;;;;;;;;;;;;;18.79;38.66;100543.00;10542283;28;1172;-63
2023/01/01 16:16:53;;;;;;;;;;;;;;;18.73;39.03;100535.56;10542200;28;805;-63
2023/01/01 16:21:53;;;;;;;;;;;;;;;18.71;38.12;100539.34;10541847;28;1178;-62
2023/01/01 16:26:53;;;;;;;;;;;;;;;18.67;38.87;100543.28;10541672;28;1917;-63
2023/01/01 16:31:54;;;;;;;;;;;;;;;18.67;38.52;100548.59;10542504;28;1187;-62
2023/01/01 16:36:54;;;;;;;;;;;;;;;18.69;38.14;100558.09;10542627;28;925;-63
2023/01/01 16:41:54;;;;;;;;;;;;;;;18.77;38.69;100558.25;10541538;28;1256;-63
2023/01/01 16:46:55;;;;;;;;;;;;;;;18.71;37.91;100566.78;10540911;28;1914;-63
2023/01/01 16:51:55;;;;;;;;;;;;;;;18.64;37.51;100573.63;10541299;28;1273;-63
2023/01/01 16:56:55;;;;;;;;;;;;;;;19.20;39.10;100571.16;10542500;28;1026;-63
2023/01/01 17:01:55;;;;;;;;;;;;;;;19.37;40.11;100582.06;10541956;28;1286;-63
2023/01/01 17:06:56;;;;;;;;;;;;;;;19.23;40.30;100599.28;10549043;28;1906;-64
2023/01/01 17:11:56;;;;;;;;;;;;;;;19.14;40.45;100600.16;10548173;28;1192;-67
2023/01/01 17:16:56;;;;;;;;;;;;;;;19.10;40.06;100612.91;10548045;28;915;-62
2023/01/01 17:21:56;;;;;;;;;;;;;;;19.00;40.66;100619.19;10548909;28;1334;-63
2023/01/01 17:26:57;;;;;;;;;;;;;;;18.89;40.25;100615.69;10548565;28;1913;-61
2023/01/01 17:31:57;;;;;;;;;;;;;;;19.07;40.25;100626.47;10551803;28;1262;-62
2023/01/01 17:36:57;;;;;;;;;;;;;;;19.19;39.84;100640.50;10547281;28;860;-62
2023/01/01 17:41:57;;;;;;;;;;;;;;;19.32;39.82;100642.88;10548078;28;1187;-62
2023/01/01 17:46:58;;;;;;;;;;;;;;;19.41;39.34;100650.03;10548491;28;1910;-64
2023/01/01 17:51:58;;;;;;;;;;;;;;;19.21;40.00;100651.84;10546551;28;1270;-65
2023/01/01 17:57:02;;;;;;;;;;;;;;;19.13;39.59;100659.69;10548242;28;1034;-60
2023/01/01 18:02:02;;;;;;;;;;;;;;;19.15;39.43;100658.56;10546615;28;1287;-62
2023/01/01 18:07:02;;;;;;;;;;;;;;;19.13;38.79;100676.50;10547748;28;1893;-61
2023/01/01 18:12:03;;;;;;;;;;;;;;;19.03;38.88;100678.31;10546838;28;1191;-62
2023/01/01 18:17:03;;;;;;;;;;;;;;;18.93;38.16;100673.94;10546676;28;1006;-61
2023/01/01 18:22:07;;;;;;;;;;;;;;;18.87;37.69;100684.16;10546560;28;1196;-61
2023/01/01 18:27:07;;;;;;;;;;;;;;;18.87;37.96;100696.59;10546626;28;1910;-62
2023/01/01 18:32:07;;;;;;;;;;;;;;;18.83;38.35;100708.50;10546571;28;1189;-62
2023/01/01 18:37:07;;;;;;;;;;;;;;;18.99;38.51;100702.69;10545993;28;888;-60
2023/01/01 18:42:24;;;;;;;;;;;;;;;19.14;38.90;100711.94;10546310;28;1194;-61
2023/01/01 18:47:25;;;;;;;;;;;;;;;18.99;38.21;100724.81;10545445;28;1898;-60
2023/01/01 18:52:26;;;;;;;;;;;;;;;18.89;38.14;100738.06;10545169;28;1276;-60
2023/01/01 18:57:26;;;;;;;;;;;;;;;18.85;38.49;100734.00;10546664;28;927;-60
2023/01/01 19:02:36;;;;;;;;;;;;;;;18.94;38.07;100739.47;10544907;28;1184;-62
2023/01/01 19:07:37;;;;;;;;;;;;;;;18.95;37.62;100759.78;10545243;28;1968;-59
2023/01/01 19:12:37;;;;;;;;;;;;;;;18.89;38.15;100763.84;10545058;28;1194;-60
2023/01/01 19:17:37;;;;;;;;;;;;;;;18.92;37.92;100757.41;10544825;28;1099;-60
2023/01/01 19:22:37;;;;;;;;;;;;;;;18.99;37.59;100764.72;10544103;28;1260;-62
2023/01/01 19:27:41;;;;;;;;;;;;;;;19.03;37.82;100774.13;10543975;28;1977;-61
2023/01/01 19:32:44;;;;;;;;;;;;;;;19.06;37.70;100781.84;10543983;28;1189;-60
2023/01/01 19:37:44;;;;;;;;;;;;;;;19.03;37.67;100783.91;10543629;28;925;-62
2023/01/01 19:42:44;;;;;;;;;;;;;;;18.97;37.65;100801.28;10543621;28;1198;-61
2023/01/01 19:47:44;;;;;;;;;;;;;;;18.89;38.11;100801.94;10543894;28;1910;-60
2023/01/01 19:52:46;;;;;;;;;;;;;;;18.92;38.11;100811.44;10543005;28;1258;-60
2023/01/01 19:57:46;;;;;;;;;;;;;;;18.93;38.17;100833.59;10543461;28;824;-61
2023/01/01 20:02:46;;;;;;;;;;;;;;;18.98;37.90;100840.22;10542620;28;1290;-60
2023/01/01 20:07:46;;;;;;;;;;;;;;;18.99;37.92;100835.72;10543061;28;1965;-63
2023/01/01 20:12:47;;;;;;;;;;;;;;;19.24;39.01;100856.56;10543034;28;1185;-61
2023/01/01 20:17:47;;;;;;;;;;;;;;;18.94;37.87;100860.06;10541977;28;825;-62
2023/01/01 20:22:47;;;;;;;;;;;;;;;18.93;38.35;100862.84;10544810;28;1290;-62
2023/01/01 20:33:06;;;;;;;;;;;;;;;18.88;38.80;100872.09;10541809;28;1309;-61
2023/01/01 20:38:06;;;;;;;;;;;;;;;18.89;38.81;100873.78;10541134;28;809;-64
2023/01/01 20:43:07;;;;;;;;;;;;;;;18.87;38.88;100886.38;10541713;28;1346;-62
2023/01/01 20:48:07;;;;;;;;;;;;;;;18.83;38.51;100884.09;10541717;28;1906;-64
2023/01/01 20:53:07;;;;;;;;;;;;;;;18.82;38.59;100898.38;10541201;28;1280;-65
2023/01/01 20:58:07;;;;;;;;;;;;;;;18.82;38.55;100891.25;10542360;28;864;-64
2023/01/01 21:03:07;;;;;;;;;;;;;;;18.83;38.44;100892.94;10542186;28;1294;-64
2023/01/01 21:08:08;;;;;;;;;;;;;;;18.81;38.35;100889.56;10541883;28;1957;-64
2023/01/01 21:13:08;;;;;;;;;;;;;;;18.77;38.39;100884.59;10541068;28;1190;-63
2023/01/01 21:18:11;;;;;;;;;;;;;;;18.76;38.32;100902.41;10541614;28;910;-63
2023/01/01 21:23:15;;;;;;;;;;;;;;;18.75;38.23;100906.03;10541357;28;1195;-63
2023/01/01 21:28:15;;;;;;;;;;;;;;;18.80;37.96;100911.81;10539449;28;1905;-64
2023/01/01 21:33:22;;;;;;;;;;;;;;;18.79;38.13;100927.91;10540003;28;1284;-64
2023/01/01 21:38:26;;;;;;;;;;;;;;;18.81;37.90;100928.63;10522873;28;1045;-64
2023/01/01 21:43:32;;;;;;;;;;;;;;;18.81;37.99;100939.25;10540537;28;1185;-63
2023/01/01 21:48:33;;;;;;;;;;;;;;;18.74;38.10;100928.28;10540991;28;1972;-64
2023/01/01 21:53:34;;;;;;;;;;;;;;;18.73;38.00;100945.22;10547189;28;1192;-63
2023/01/01 22:03:55;;;;;;;;;;;;;;;18.78;37.90;100960.78;10547600;28;1253;-64
2023/01/01 22:08:55;;;;;;;;;;;;;;;18.80;37.81;100964.16;10547186;28;1902;-63
2023/01/01 22:13:56;;;;;;;;;;;;;;;18.81;37.83;100974.69;10547425;28;1254;-64
2023/01/01 22:18:56;;;;;;;;;;;;;;;18.77;37.83;100989.22;10547519;28;848;-63
2023/01/01 22:23:56;;;;;;;;;;;;;;;18.78;37.74;100998.88;10546543;28;1275;-63
2023/01/01 22:28:57;;;;;;;;;;;;;;;18.79;37.90;100999.72;10546459;28;1910;-63
2023/01/01 22:33:59;;;;;;;;;;;;;;;18.72;38.00;101004.72;10545597;28;1214;-64
2023/01/01 22:39:00;;;;;;;;;;;;;;;18.69;37.91;101010.28;10545516;28;832;-64
2023/01/01 22:44:01;;;;;;;;;;;;;;;18.70;37.76;101005.81;10546272;28;1274;-64
2023/01/01 22:49:21;;;;;;;;;;;;;;;18.71;37.67;101005.69;10546195;28;1898;-64
2023/01/01 22:54:22;;;;;;;;;;;;;;;18.73;37.67;101011.72;10544815;28;1342;-64
2023/01/01 22:59:22;;;;;;;;;;;;;;;18.76;37.71;101019.47;10546590;28;1044;-64
2023/01/01 23:04:23;;;;;;;;;;;;;;;18.78;37.45;101016.66;10544820;28;1192;-63
2023/01/01 23:09:23;;;;;;;;;;;;;;;18.76;37.84;101011.50;10544699;28;1914;-64
2023/01/01 23:19:42;;;;;;;;;;;;;;;18.72;37.77;101010.03;10545018;28;606;-60
2023/01/01 23:24:42;;;;;;;;;;;;;;;18.74;37.51;101013.41;10544747;28;1291;-62
2023/01/01 23:29:42;;;;;;;;;;;;;;;18.75;37.62;101014.28;10542650;28;1997;-62
2023/01/01 23:34:43;;;;;;;;;;;;;;;18.77;37.71;101014.97;10543233;28;911;-63
2023/01/01 23:39:43;;;;;;;;;;;;;;;18.81;37.47;101014.59;10542988;28;1170;-61
2023/01/01 23:44:43;;;;;;;;;;;;;;;18.83;37.43;100996.69;10544022;28;879;-60
2023/01/01 23:49:43;;;;;;;;;;;;;;;18.83;37.58;100990.53;10542530;28;1914;-63
2023/01/01 23:54:43;;;;;;;;;;;;;;;18.84;37.59;100994.88;10544024;28;1032;-63
2023/01/01 23:59:44;;;;;;;;;;;;;;;18.84;37.49;100992.22;10542641;28;1298;-64
